createdAt,value
2022-09-05T00:00:11.684Z,2.00
2022-09-05T00:02:55.485Z,2.85
2022-09-05T00:06:02.623Z,3.58
2022-09-05T00:08:48.638Z,3.30
2022-09-05T00:11:40.686Z,3.50
2022-09-05T00:14:35.262Z,3.80
2022-09-05T00:17:58.881Z,3.13
2022-09-05T00:24:31.280Z,2.85
2022-09-05T00:24:33.058Z,3.00
2022-09-05T00:26:50.602Z,3.13
2022-09-05T00:31:05.853Z,3.53
2022-09-05T00:33:27.100Z,2.92
2022-09-05T00:36:27.814Z,3.05
2022-09-05T00:39:06.862Z,3.40
2022-09-05T00:41:40.441Z,4.43
2022-09-05T00:44:14.183Z,3.13
2022-09-05T00:46:59.950Z,4.47
2022-09-05T00:49:40.733Z,4.25
2022-09-05T00:52:19.359Z,4.43
2022-09-05T00:55:01.973Z,3.40
2022-09-05T00:57:54.333Z,4.28
2022-09-05T01:00:44.248Z,5.00
2022-09-05T01:03:31.723Z,4.57
2022-09-05T01:06:24.114Z,4.35
2022-09-05T01:09:18.532Z,5.25
2022-09-05T01:12:00.891Z,5.30
2022-09-05T01:14:51.218Z,5.22
2022-09-05T01:17:38.141Z,4.78
2022-09-05T01:20:29.726Z,5.30
2022-09-05T01:23:31.856Z,6.70
2022-09-05T01:26:36.910Z,6.00
2022-09-05T01:29:19.609Z,5.28
2022-09-05T01:32:08.046Z,4.20
2022-09-05T01:35:23.968Z,4.53
2022-09-05T01:38:02.451Z,3.95
2022-09-05T01:40:46.884Z,4.05
2022-09-05T01:43:45.382Z,5.00
2022-09-05T01:46:30.384Z,4.60
2022-09-05T01:49:13.423Z,4.03
2022-09-05T01:52:14.918Z,3.58
2022-09-05T01:55:10.753Z,4.63
2022-09-05T01:57:53.050Z,4.63
2022-09-05T02:00:34.360Z,5.65
2022-09-05T02:03:18.285Z,4.18
2022-09-05T02:06:34.949Z,4.35
2022-09-05T02:09:24.116Z,4.78
2022-09-05T02:11:58.132Z,5.03
2022-09-05T02:14:40.074Z,4.05
2022-09-05T02:17:50.119Z,4.82
2022-09-05T02:20:24.330Z,5.03
2022-09-05T02:23:03.691Z,4.80
2022-09-05T02:26:03.184Z,3.83
2022-09-05T02:28:45.756Z,4.57
2022-09-05T02:31:24.013Z,4.28
2022-09-05T02:34:01.795Z,4.13
2022-09-05T02:36:42.955Z,4.35
2022-09-05T02:45:00.676Z,4.82
2022-09-05T02:45:16.849Z,3.83
2022-09-05T02:45:27.917Z,4.50
2022-09-05T02:48:15.410Z,4.47
2022-09-05T02:57:23.365Z,4.15
2022-09-05T02:57:34.042Z,4.68
2022-09-05T02:57:37.802Z,5.07
2022-09-05T03:00:00.955Z,4.53
2022-09-05T03:02:49.456Z,4.90
2022-09-05T03:05:26.853Z,4.57
2022-09-05T03:08:15.818Z,5.18
2022-09-05T03:11:30.136Z,4.30
2022-09-05T03:14:38.913Z,4.13
2022-09-05T03:17:40.719Z,4.25
2022-09-05T03:21:09.514Z,4.03
2022-09-05T03:24:08.783Z,4.32
2022-09-05T03:27:08.579Z,5.20
2022-09-05T03:30:07.900Z,4.38
2022-09-05T03:33:17.964Z,2.95
2022-09-05T03:36:25.927Z,3.47
2022-09-05T03:39:48.650Z,3.22
2022-09-05T03:42:41.411Z,3.30
2022-09-05T03:45:40.919Z,3.05
2022-09-05T03:57:07.966Z,2.78
2022-09-05T03:57:18.470Z,3.42
2022-09-05T03:58:41.986Z,2.88
2022-09-05T04:01:52.565Z,2.00
2022-09-05T04:08:13.435Z,2.60
2022-09-05T04:08:19.733Z,3.15
2022-09-05T04:10:28.964Z,2.58
2022-09-05T04:13:06.203Z,3.45
2022-09-05T04:15:43.339Z,2.78
2022-09-05T04:18:33.072Z,2.55
2022-09-05T04:21:13.447Z,2.92
2022-09-05T04:23:52.367Z,2.80
2022-09-05T04:26:39.719Z,4.28
2022-09-05T04:29:19.646Z,2.88
2022-09-05T04:32:18.090Z,2.45
2022-09-05T04:35:06.875Z,2.33
2022-09-05T04:37:49.632Z,2.35
2022-09-05T04:40:38.071Z,2.75
2022-09-05T04:43:19.137Z,2.30
2022-09-05T04:45:54.821Z,2.78
2022-09-05T04:48:34.589Z,2.85
2022-09-05T04:51:21.727Z,2.60
2022-09-05T04:54:11.383Z,2.63
2022-09-05T05:02:58.337Z,3.53
2022-09-05T05:06:13.105Z,2.38
2022-09-05T05:06:13.898Z,2.47
2022-09-05T05:08:28.784Z,2.78
2022-09-05T05:17:53.889Z,2.65
2022-09-05T05:17:56.958Z,2.30
2022-09-05T05:18:06.169Z,3.63
2022-09-05T05:20:41.776Z,2.40
2022-09-05T05:23:07.611Z,2.75
2022-09-05T05:25:50.278Z,3.25
2022-09-05T05:28:30.477Z,3.95
2022-09-05T05:31:12.539Z,2.83
2022-09-05T05:33:47.483Z,2.78
2022-09-05T05:36:24.563Z,2.83
2022-09-05T05:39:03.580Z,2.72
2022-09-05T05:41:42.549Z,3.35
2022-09-05T05:44:17.438Z,3.08
2022-09-05T05:46:58.543Z,2.85
2022-09-05T05:49:44.894Z,2.67
2022-09-05T05:52:40.631Z,1.85
2022-09-05T05:55:51.466Z,2.80
2022-09-05T05:58:58.432Z,2.75
2022-09-05T06:02:15.393Z,2.38
2022-09-05T06:05:25.659Z,2.17
2022-09-05T06:11:00.962Z,2.33
2022-09-05T06:15:00.010Z,2.95
2022-09-05T06:15:08.947Z,2.90
2022-09-05T06:18:27.319Z,3.35
2022-09-05T06:22:11.031Z,2.78
2022-09-05T06:24:53.016Z,3.50
2022-09-05T06:28:01.609Z,2.40
2022-09-05T06:30:57.247Z,2.38
2022-09-05T06:33:56.652Z,2.17
2022-09-05T06:36:48.218Z,2.85
2022-09-05T06:39:39.210Z,2.88
2022-09-05T06:42:30.607Z,3.03
2022-09-05T06:45:29.448Z,2.28
2022-09-05T06:48:14.506Z,2.00
2022-09-05T06:51:26.711Z,1.88
2022-09-05T06:54:12.043Z,2.20
2022-09-05T06:57:00.398Z,1.63
2022-09-05T07:00:04.459Z,1.83
2022-09-05T07:02:59.096Z,1.73
2022-09-05T07:05:44.887Z,1.73
2022-09-05T07:08:35.272Z,1.48
2022-09-05T07:11:18.150Z,1.13
2022-09-05T07:14:00.009Z,1.50
2022-09-05T07:16:41.199Z,1.50
2022-09-05T07:19:27.148Z,1.85
2022-09-05T07:22:29.339Z,1.60
2022-09-05T07:25:11.066Z,1.95
2022-09-05T07:28:28.888Z,1.42
2022-09-05T07:30:50.418Z,1.50
2022-09-05T07:33:27.755Z,1.45
2022-09-05T07:36:08.770Z,1.63
2022-09-05T07:39:02.380Z,2.70
2022-09-05T07:41:44.446Z,1.40
2022-09-05T07:44:22.604Z,1.98
2022-09-05T07:47:04.463Z,1.88
2022-09-05T07:49:57.969Z,2.15
2022-09-05T07:56:53.850Z,1.40
2022-09-05T07:57:09.779Z,1.77
2022-09-05T07:58:40.728Z,1.50
2022-09-05T08:01:14.559Z,1.85
2022-09-05T08:03:54.479Z,1.20
2022-09-05T08:06:41.473Z,1.27
2022-09-05T08:10:06.596Z,1.63
2022-09-05T08:12:27.784Z,1.73
2022-09-05T08:15:07.009Z,1.50
2022-09-05T08:18:01.771Z,1.25
2022-09-05T08:20:42.430Z,1.27
2022-09-05T08:23:34.194Z,1.67
2022-09-05T08:26:10.251Z,1.42
2022-09-05T08:28:54.879Z,1.17
2022-09-05T08:31:38.595Z,1.80
2022-09-05T08:34:22.722Z,1.60
2022-09-05T08:37:06.692Z,1.63
2022-09-05T08:39:42.870Z,1.90
2022-09-05T08:42:28.033Z,1.60
2022-09-05T08:46:44.898Z,1.38
2022-09-05T08:48:18.348Z,1.50
2022-09-05T08:51:12.803Z,1.38
2022-09-05T08:54:00.451Z,1.70
2022-09-05T08:56:40.234Z,1.77
2022-09-05T08:59:32.911Z,1.45
2022-09-05T09:02:46.660Z,1.88
2022-09-05T09:06:12.445Z,1.10
2022-09-05T09:08:34.581Z,1.40
2022-09-05T09:11:19.084Z,0.90
2022-09-05T09:13:54.369Z,1.77
2022-09-05T09:16:34.015Z,1.50
2022-09-05T09:19:11.520Z,1.10
2022-09-05T09:21:58.189Z,1.27
2022-09-05T09:24:38.132Z,1.33
2022-09-05T09:27:24.277Z,0.95
2022-09-05T09:30:14.512Z,1.25
2022-09-05T09:32:49.730Z,1.20
2022-09-05T09:35:30.774Z,1.42
2022-09-05T09:38:30.232Z,1.17
2022-09-05T09:41:32.103Z,1.02
2022-09-05T09:44:56.194Z,1.15
2022-09-05T09:47:46.564Z,0.95
2022-09-05T09:50:37.983Z,1.70
2022-09-05T09:53:37.244Z,1.23
2022-09-05T09:56:32.135Z,1.10
2022-09-05T09:59:23.315Z,1.00
2022-09-05T10:03:36.318Z,1.20
2022-09-05T10:10:35.336Z,1.57
2022-09-05T10:10:58.570Z,1.02
2022-09-05T10:11:54.321Z,0.70
2022-09-05T10:14:57.055Z,1.13
2022-09-05T10:17:51.915Z,1.00
2022-09-05T10:20:44.786Z,1.35
2022-09-05T10:24:01.143Z,0.98
2022-09-05T10:27:08.649Z,0.95
2022-09-05T10:29:49.776Z,1.25
2022-09-05T10:35:06.118Z,1.20
2022-09-05T10:35:24.385Z,1.23
2022-09-05T10:38:10.164Z,0.90
2022-09-05T10:41:20.074Z,1.08
2022-09-05T10:43:50.059Z,0.98
2022-09-05T10:46:51.162Z,1.17
2022-09-05T10:49:30.400Z,1.05
2022-09-05T10:52:18.447Z,1.02
2022-09-05T10:55:14.736Z,1.00
2022-09-05T10:57:58.755Z,1.33
2022-09-05T11:02:20.876Z,0.90
2022-09-05T11:03:57.117Z,1.05
2022-09-05T11:06:48.982Z,1.30
2022-09-05T11:09:48.537Z,1.10
2022-09-05T11:12:57.719Z,0.90
2022-09-05T11:15:39.232Z,1.48
2022-09-05T11:18:54.958Z,1.10
2022-09-05T11:21:38.998Z,1.05
2022-09-05T11:24:27.358Z,1.33
2022-09-05T11:27:23.681Z,1.42
2022-09-05T11:30:03.986Z,0.85
2022-09-05T11:39:53.477Z,1.38
2022-09-05T11:40:05.031Z,1.30
2022-09-05T11:42:34.608Z,1.15
2022-09-05T11:45:49.360Z,1.13
2022-09-05T11:49:01.148Z,1.27
2022-09-05T11:52:11.832Z,1.38
2022-09-05T11:55:20.874Z,1.10
2022-09-05T11:58:44.739Z,1.40
2022-09-05T12:01:41.412Z,1.13
2022-09-05T12:04:45.684Z,1.40
2022-09-05T12:07:51.698Z,1.20
2022-09-05T12:10:45.778Z,1.08
2022-09-05T12:14:21.376Z,1.50
2022-09-05T12:17:10.286Z,1.13
2022-09-05T12:19:57.935Z,1.02
2022-09-05T12:22:34.095Z,1.33
2022-09-05T12:25:26.617Z,1.35
2022-09-05T12:29:28.005Z,1.00
2022-09-05T12:32:17.604Z,1.27
2022-09-05T12:36:09.769Z,1.15
2022-09-05T12:40:54.274Z,0.93
2022-09-05T12:41:35.858Z,1.15
2022-09-05T12:44:39.371Z,1.08
2022-09-05T12:46:57.427Z,1.00
2022-09-05T12:49:37.714Z,1.08
2022-09-05T12:52:16.562Z,1.23
2022-09-05T12:54:56.868Z,1.25
2022-09-05T13:01:34.939Z,1.08
2022-09-05T13:03:12.591Z,1.40
2022-09-05T13:03:28.069Z,1.88
2022-09-05T13:06:08.037Z,1.10
2022-09-05T13:08:47.110Z,1.30
2022-09-05T13:14:49.207Z,1.15
2022-09-05T13:15:07.626Z,0.68
2022-09-05T13:17:48.071Z,1.40
2022-09-05T13:20:31.777Z,1.30
2022-09-05T13:23:17.468Z,1.38
2022-09-05T13:26:03.363Z,1.13
2022-09-05T13:28:44.791Z,1.00
2022-09-05T13:38:08.369Z,1.10
2022-09-05T13:38:14.611Z,1.08
2022-09-05T13:38:15.472Z,1.20
2022-09-05T13:40:41.574Z,1.15
2022-09-05T13:43:21.079Z,1.10
2022-09-05T13:51:41.454Z,1.17
2022-09-05T14:03:41.617Z,1.10
2022-09-05T14:06:46.383Z,1.10
2022-09-05T14:09:39.641Z,1.33
2022-09-05T14:12:28.614Z,1.23
2022-09-05T14:15:16.966Z,1.10
2022-09-05T14:18:01.671Z,0.93
2022-09-05T14:21:15.045Z,1.10
2022-09-05T14:23:56.285Z,1.38
2022-09-05T14:26:34.168Z,1.10
2022-09-05T14:29:15.499Z,1.05
2022-09-05T14:37:42.858Z,1.50
2022-09-05T14:37:50.482Z,1.00
2022-09-05T14:38:56.311Z,0.95
2022-09-05T14:42:07.373Z,1.48
2022-09-05T14:45:07.238Z,1.15
2022-09-05T14:48:02.896Z,1.02
2022-09-05T14:50:49.267Z,1.25
2022-09-05T14:57:10.215Z,1.45
2022-09-05T15:02:49.360Z,1.40
2022-09-05T15:02:58.393Z,1.00
2022-09-05T15:05:35.324Z,1.00
2022-09-05T15:09:50.907Z,0.90
2022-09-05T15:12:21.669Z,1.10
2022-09-05T15:14:06.155Z,0.95
2022-09-05T15:16:44.878Z,0.95
2022-09-05T15:20:04.974Z,1.05
2022-09-05T15:22:41.060Z,0.93
2022-09-05T15:25:17.866Z,1.05
2022-09-05T15:27:51.090Z,1.10
2022-09-05T15:30:26.686Z,1.08
2022-09-05T15:33:15.178Z,1.02
2022-09-05T15:35:47.826Z,1.20
2022-09-05T15:38:24.322Z,1.00
2022-09-05T15:41:16.581Z,0.90
2022-09-05T15:43:59.879Z,0.98
2022-09-05T15:46:46.705Z,0.95
2022-09-05T15:49:28.537Z,1.05
2022-09-05T15:52:04.234Z,1.05
2022-09-05T15:54:48.971Z,0.80
2022-09-05T15:57:25.890Z,1.00
2022-09-05T16:00:01.386Z,1.00
2022-09-05T16:02:42.767Z,0.80
2022-09-05T16:10:36.458Z,1.40
2022-09-05T16:10:41.914Z,0.82
2022-09-05T16:12:09.169Z,1.15
2022-09-05T16:14:39.677Z,0.80
2022-09-05T16:23:16.095Z,1.10
2022-09-05T16:23:32.023Z,1.25
2022-09-05T16:26:12.942Z,1.20
2022-09-05T16:28:56.694Z,1.00
2022-09-05T16:31:37.066Z,1.20
2022-09-05T16:34:27.062Z,0.70
2022-09-05T16:37:08.800Z,1.00
2022-09-05T16:39:48.354Z,1.13
2022-09-05T16:42:27.166Z,0.93
2022-09-05T16:45:30.654Z,1.10
2022-09-05T16:48:13.875Z,0.98
2022-09-05T16:50:51.674Z,1.25
2022-09-05T16:53:32.928Z,0.98
2022-09-05T16:56:10.953Z,1.35
2022-09-05T16:58:47.512Z,0.90
2022-09-05T17:01:38.071Z,0.80
2022-09-05T17:04:18.127Z,1.02
2022-09-05T17:06:56.806Z,1.05
2022-09-05T17:09:41.312Z,14.18
2022-09-05T17:12:19.076Z,1.88
2022-09-05T17:14:57.320Z,1.50
2022-09-05T17:18:22.181Z,1.15
2022-09-05T17:20:42.999Z,0.90
2022-09-05T17:29:12.959Z,1.02
2022-09-05T17:29:41.272Z,0.95
2022-09-05T17:32:41.891Z,0.90
2022-09-05T17:35:21.423Z,1.20
2022-09-05T17:41:04.973Z,1.17
2022-09-05T17:43:39.566Z,0.90
2022-09-05T17:46:18.340Z,1.35
2022-09-05T17:49:16.235Z,1.20
2022-09-05T17:52:16.650Z,1.60
2022-09-05T17:54:52.159Z,1.05
2022-09-05T17:57:39.426Z,1.20
2022-09-05T18:01:00.416Z,1.38
2022-09-05T18:04:32.786Z,1.05
2022-09-05T18:07:49.646Z,1.33
2022-09-05T18:11:00.602Z,1.20
2022-09-05T18:13:51.431Z,1.73
2022-09-05T18:16:31.961Z,1.40
2022-09-05T18:19:57.952Z,0.95
2022-09-05T18:22:35.746Z,0.68
2022-09-05T18:25:28.305Z,1.73
2022-09-05T18:28:19.372Z,0.82
2022-09-05T18:30:54.969Z,0.98
2022-09-05T18:34:03.425Z,0.93
2022-09-05T18:36:34.516Z,1.10
2022-09-05T18:39:41.043Z,1.20
2022-09-05T18:42:25.954Z,1.13
2022-09-05T18:45:14.683Z,0.88
2022-09-05T18:47:59.259Z,1.02
2022-09-05T18:50:36.026Z,1.13
2022-09-05T18:53:13.585Z,0.80
2022-09-05T18:56:13.551Z,1.20
2022-09-05T18:58:53.322Z,1.60
2022-09-05T19:01:42.837Z,0.80
2022-09-05T19:04:40.896Z,1.10
2022-09-05T19:07:19.389Z,0.93
2022-09-05T19:10:10.835Z,1.00
2022-09-05T19:12:59.556Z,0.60
2022-09-05T19:15:37.236Z,1.20
2022-09-05T19:18:25.857Z,1.00
2022-09-05T19:21:11.958Z,1.40
2022-09-05T19:23:53.115Z,1.40
2022-09-05T19:26:29.130Z,0.82
2022-09-05T19:36:52.443Z,1.00
2022-09-05T19:36:59.599Z,1.48
2022-09-05T19:37:13.760Z,0.88
2022-09-05T19:37:49.465Z,1.30
2022-09-05T19:47:26.850Z,1.35
2022-09-05T19:47:40.254Z,1.30
2022-09-05T19:47:49.137Z,1.48
2022-09-05T19:49:10.419Z,1.83
2022-09-05T19:51:44.275Z,1.52
2022-09-05T19:54:26.035Z,1.20
2022-09-05T19:57:04.959Z,1.40
2022-09-05T19:59:39.221Z,1.58
2022-09-05T20:02:19.958Z,0.90
2022-09-05T20:04:54.887Z,1.45
2022-09-05T20:07:30.500Z,1.13
2022-09-05T20:10:04.574Z,1.70
2022-09-05T20:12:38.828Z,1.00
2022-09-05T20:15:19.713Z,1.27
2022-09-05T20:17:53.319Z,1.73
2022-09-05T20:20:29.821Z,0.90
2022-09-05T20:23:06.452Z,2.15
2022-09-05T20:25:40.669Z,1.63
2022-09-05T20:28:17.103Z,1.58
2022-09-05T20:30:53.265Z,1.50
2022-09-05T20:33:34.238Z,1.30
2022-09-05T20:43:07.737Z,1.55
2022-09-05T20:43:26.644Z,0.98
2022-09-05T20:43:30.867Z,1.23
2022-09-05T20:44:54.806Z,1.55
2022-09-05T20:54:04.714Z,1.40
2022-09-05T20:54:26.311Z,1.95
2022-09-05T20:54:28.946Z,1.17
2022-09-05T20:56:31.739Z,0.90
2022-09-05T20:59:10.631Z,1.73
2022-09-05T21:01:55.011Z,1.38
2022-09-05T21:04:32.168Z,1.27
2022-09-05T21:07:10.940Z,1.55
2022-09-05T21:09:52.015Z,1.10
2022-09-05T21:12:27.947Z,1.42
2022-09-05T21:15:02.918Z,1.27
2022-09-05T21:17:40.699Z,1.13
2022-09-05T21:20:18.774Z,0.95
2022-09-05T21:22:51.265Z,1.48
2022-09-05T21:25:26.622Z,1.42
2022-09-05T21:28:36.505Z,1.10
2022-09-05T21:34:20.006Z,1.25
2022-09-05T21:37:03.911Z,1.13
2022-09-05T21:39:59.398Z,1.00
2022-09-05T21:43:46.557Z,1.02
2022-09-05T21:47:47.667Z,1.75
2022-09-05T21:48:25.782Z,1.38
2022-09-05T21:51:02.036Z,1.17
2022-09-05T21:58:50.945Z,1.40
2022-09-05T21:59:17.485Z,1.60
2022-09-05T21:59:41.577Z,1.10
2022-09-05T22:02:18.547Z,1.30
2022-09-05T22:04:53.392Z,0.93
2022-09-05T22:07:33.006Z,1.42
2022-09-05T22:10:07.845Z,1.48
2022-09-05T22:12:40.452Z,1.35
2022-09-05T22:15:27.645Z,1.75
2022-09-05T22:18:26.993Z,1.10
2022-09-05T22:21:32.642Z,1.45
2022-09-05T22:23:51.243Z,1.33
2022-09-05T22:26:24.251Z,1.25
2022-09-05T22:28:56.729Z,1.00
2022-09-05T22:31:30.129Z,1.95
2022-09-05T22:34:03.271Z,1.13
2022-09-05T22:36:36.383Z,1.08
2022-09-05T22:39:12.229Z,1.33
2022-09-05T22:41:49.062Z,1.33
2022-09-05T22:44:22.199Z,1.38
2022-09-05T22:46:54.575Z,1.30
2022-09-05T22:49:28.048Z,1.75
2022-09-05T22:52:00.387Z,1.80
2022-09-05T22:54:32.763Z,1.35
2022-09-05T22:57:05.462Z,1.65
2022-09-05T22:59:37.843Z,1.08
2022-09-05T23:02:10.170Z,1.38
2022-09-05T23:04:43.187Z,1.38
2022-09-05T23:07:15.612Z,0.75
2022-09-05T23:09:47.994Z,1.73
2022-09-05T23:12:20.362Z,1.40
2022-09-05T23:14:53.387Z,1.00
2022-09-05T23:17:25.755Z,1.13
2022-09-05T23:19:58.877Z,0.85
2022-09-05T23:22:31.276Z,0.93
2022-09-05T23:25:04.236Z,1.10
2022-09-05T23:27:37.438Z,1.27
2022-09-05T23:30:11.017Z,1.73
2022-09-05T23:32:44.705Z,1.20
2022-09-05T23:35:18.787Z,1.00
2022-09-05T23:37:51.171Z,1.45
2022-09-05T23:40:24.174Z,1.17
2022-09-05T23:43:00.389Z,1.30
2022-09-05T23:45:32.977Z,0.95
2022-09-05T23:48:05.459Z,1.20
2022-09-05T23:50:38.479Z,1.23
2022-09-05T23:53:10.826Z,0.93
2022-09-05T23:55:43.201Z,1.10
2022-09-05T23:58:16.163Z,1.38
